Time;durP1;ratioP1;P1;durP2;ratioP2;P2;SDS_P1;SDS_P2;PMS_P1;PMS_P2;Temp;Humidity;BMP_temperature;BMP_pressure;BME280_temperature;BME280_humidity;BME280_pressure;Samples;Min_cycle;Max_cycle;Signal;HPM_P1;HPM_P2
2023/04/06 00:01:34;;;;;;;5.80;3.27;;;-4.50;99.90;;;;;;8276745;28;20234;-79
2023/04/06 00:05:35;;;;;;;3.97;2.50;;;-4.50;99.90;;;;;;8287066;28;20267;-79
2023/04/06 00:09:40;;;;;;;4.73;2.43;;;-4.60;1.00;;;;;;8281749;28;20260;-79
2023/04/06 00:13:48;;;;;;;4.13;2.67;;;-4.70;99.90;;;;;;8276584;28;20193;-79
2023/04/06 00:17:49;;;;;;;3.57;2.10;;;-4.70;1.00;;;;;;8280250;28;20194;-79
2023/04/06 00:21:50;;;;;;;4.53;2.77;;;-4.80;1.00;;;;;;8285996;28;20187;-79
2023/04/06 00:25:51;;;;;;;4.33;2.60;;;-4.70;99.90;;;;;;8276415;28;20198;-79
2023/04/06 00:29:52;;;;;;;4.43;3.17;;;-4.80;1.00;;;;;;8294157;28;20210;-79
2023/04/06 00:33:52;;;;;;;4.27;2.73;;;-4.80;99.90;;;;;;8281557;28;20190;-77
2023/04/06 00:37:53;;;;;;;4.23;3.07;;;-4.80;1.00;;;;;;8280221;28;20194;-78
2023/04/06 00:41:56;;;;;;;5.93;3.43;;;-4.80;1.00;;;;;;8274936;28;20190;-78
2023/04/06 00:45:57;;;;;;;6.30;3.53;;;-4.80;51.30;;;;;;8277881;28;20187;-78
2023/04/06 00:49:58;;;;;;;5.83;3.43;;;-4.80;1.00;;;;;;8284393;28;20214;-78
2023/04/06 00:54:02;;;;;;;6.17;3.67;;;-4.80;1.00;;;;;;8275783;28;20193;-78
2023/04/06 00:58:07;;;;;;;5.10;3.97;;;-4.90;1.00;;;;;;8290856;28;20220;-78
2023/04/06 01:02:09;;;;;;;6.07;3.77;;;-4.90;1.00;;;;;;8284982;28;20214;-79
2023/04/06 01:06:10;;;;;;;7.07;3.80;;;-5.00;99.90;;;;;;8281327;28;20200;-78
2023/04/06 01:10:11;;;;;;;5.90;3.33;;;-5.00;99.90;;;;;;8282107;28;20221;-78
2023/04/06 01:14:12;;;;;;;5.83;3.60;;;-5.10;99.90;;;;;;8276618;28;20182;-78
2023/04/06 01:18:13;;;;;;;5.00;3.73;;;-5.10;99.90;;;;;;8284161;28;20202;-78
2023/04/06 01:22:24;;;;;;;7.77;4.00;;;-5.10;99.90;;;;;;8286876;28;20299;-77
2023/04/06 01:26:26;;;;;;;5.67;3.80;;;-5.20;99.90;;;;;;8283898;28;20198;-78
2023/04/06 01:30:27;;;;;;;6.50;4.30;;;-5.20;99.90;;;;;;8280796;28;20220;-78
2023/04/06 01:34:28;;;;;;;7.40;4.57;;;-5.20;99.90;;;;;;8280844;28;20244;-78
2023/04/06 01:38:30;;;;;;;8.63;4.80;;;-5.20;99.90;;;;;;8287605;28;20302;-78
2023/04/06 01:42:31;;;;;;;8.67;4.73;;;-5.20;1.00;;;;;;8284560;28;20205;-78
2023/04/06 01:46:32;;;;;;;12.37;6.43;;;-5.10;7.40;;;;;;8285912;28;20224;-78
2023/04/06 01:50:33;;;;;;;9.83;5.90;;;-5.10;99.90;;;;;;8293828;28;20210;-78
2023/04/06 01:54:34;;;;;;;9.60;5.73;;;-5.10;99.90;;;;;;8283818;28;20213;-77
2023/04/06 01:58:36;;;;;;;8.47;5.17;;;-5.20;99.90;;;;;;8277876;28;20242;-79
2023/04/06 02:02:37;;;;;;;8.43;5.10;;;-5.30;99.90;;;;;;8304122;28;20189;-79
2023/04/06 02:06:38;;;;;;;7.13;4.67;;;-5.40;1.00;;;;;;8291765;28;20196;-79
2023/04/06 02:10:46;;;;;;;6.40;3.67;;;-5.50;1.00;;;;;;8323815;28;20209;-76
2023/04/06 02:14:47;;;;;;;6.47;3.87;;;-5.50;99.90;;;;;;8300268;28;20182;-79
2023/04/06 02:18:49;;;;;;;5.47;4.13;;;-5.60;38.20;;;;;;8304320;28;20280;-80
2023/04/06 02:22:50;;;;;;;9.43;4.23;;;-5.70;1.00;;;;;;8284710;28;20204;-79
2023/04/06 02:26:54;;;;;;;6.97;4.23;;;-5.70;99.90;;;;;;8282905;28;20190;-77
2023/04/06 02:30:55;;;;;;;7.03;4.30;;;-5.70;1.00;;;;;;8281124;28;20302;-78
2023/04/06 02:34:59;;;;;;;8.13;4.60;;;-5.80;1.00;;;;;;8295456;28;20211;-78
2023/04/06 02:39:10;;;;;;;10.20;4.93;;;-5.80;99.90;;;;;;8303609;28;20189;-78
2023/04/06 02:43:12;;;;;;;14.70;4.93;;;-5.70;99.90;;;;;;8280052;28;20193;-78
2023/04/06 02:47:16;;;;;;;8.03;4.97;;;-5.70;99.90;;;;;;8280921;28;20206;-79
2023/04/06 02:51:18;;;;;;;12.80;6.30;;;-5.70;1.00;;;;;;8283762;28;20232;-78
2023/04/06 02:55:19;;;;;;;14.20;7.33;;;-5.70;1.00;;;;;;8302541;28;20318;-78
2023/04/06 02:59:20;;;;;;;12.57;6.30;;;-5.60;1.00;;;;;;8305548;28;20309;-78
2023/04/06 03:03:21;;;;;;;12.57;6.37;;;-5.60;99.90;;;;;;8317768;28;20190;-80
2023/04/06 03:07:22;;;;;;;10.37;5.13;;;-5.70;99.90;;;;;;8302853;28;20203;-79
2023/04/06 03:11:23;;;;;;;11.33;6.13;;;-5.80;1.00;;;;;;8318012;28;20250;-79
2023/04/06 03:15:24;;;;;;;12.03;6.20;;;-5.80;99.90;;;;;;8317737;28;20199;-79
2023/04/06 03:19:25;;;;;;;13.60;7.10;;;-5.80;99.90;;;;;;8310734;28;20203;-80
2023/04/06 03:23:35;;;;;;;9.20;5.80;;;-5.80;6.90;;;;;;8294104;28;20189;-79
2023/04/06 03:27:36;;;;;;;13.10;6.10;;;-5.80;1.00;;;;;;8288775;28;20255;-79
2023/04/06 03:31:37;;;;;;;11.13;6.10;;;-5.90;99.90;;;;;;8298624;28;20237;-80
2023/04/06 03:35:38;;;;;;;10.93;6.20;;;-6.00;99.90;;;;;;8287197;28;20194;-80
2023/04/06 03:39:42;;;;;;;11.57;6.47;;;-6.00;1.00;;;;;;8287118;28;20212;-79
2023/04/06 03:43:43;;;;;;;13.40;7.40;;;-6.00;1.00;;;;;;8285165;28;20298;-78
2023/04/06 03:47:44;;;;;;;11.57;7.00;;;-6.00;98.10;;;;;;8282524;28;20282;-77
2023/04/06 03:51:49;;;;;;;9.07;6.17;;;-6.00;99.90;;;;;;8286301;28;20221;-79
2023/04/06 03:55:50;;;;;;;11.43;7.07;;;-6.00;47.60;;;;;;8306100;28;20367;-79
2023/04/06 04:00:00;;;;;;;14.23;8.13;;;-6.10;1.00;;;;;;8292349;28;20306;-78
2023/04/06 04:04:04;;;;;;;16.00;7.87;;;-6.10;1.00;;;;;;8280954;28;20217;-79
2023/04/06 04:08:08;;;;;;;10.90;7.20;;;-6.10;1.00;;;;;;8284344;28;20224;-79
2023/04/06 04:12:28;;;;;;;14.50;7.53;;;-6.10;1.00;;;;;;8301877;28;20262;-79
2023/04/06 04:16:30;;;;;;;17.37;9.53;;;-6.20;99.90;;;;;;8290616;28;20198;-76
2023/04/06 04:20:31;;;;;;;20.50;9.83;;;-6.10;99.90;;;;;;8283715;28;20204;-76
2023/04/06 04:24:51;;;;;;;15.83;8.87;;;-6.10;1.00;;;;;;8294936;28;20199;-76
2023/04/06 04:28:52;;;;;;;13.87;8.60;;;-6.20;1.00;;;;;;8292451;28;20195;-76
2023/04/06 04:32:53;;;;;;;10.90;7.17;;;-6.20;1.00;;;;;;8290982;28;20263;-76
2023/04/06 04:36:57;;;;;;;12.60;6.73;;;-6.20;1.00;;;;;;8276112;28;20204;-76
2023/04/06 04:41:02;;;;;;;13.43;6.73;;;-6.10;1.00;;;;;;8304659;28;20266;-76
2023/04/06 04:45:30;;;;;;;20.07;10.77;;;-6.10;99.90;;;;;;8317944;28;20180;-77
2023/04/06 04:49:31;;;;;;;30.20;14.63;;;-6.00;1.00;;;;;;8304409;28;20206;-77
2023/04/06 04:53:32;;;;;;;30.30;14.33;;;-5.90;1.00;;;;;;8309528;28;20207;-79
2023/04/06 04:57:33;;;;;;;23.50;12.57;;;-5.80;1.00;;;;;;8310864;28;20233;-78
2023/04/06 05:01:34;;;;;;;24.67;13.17;;;-5.70;1.00;;;;;;8299763;28;20207;-77
2023/04/06 05:05:35;;;;;;;27.47;13.17;;;-5.60;99.90;;;;;;8292229;28;20196;-78
2023/04/06 05:09:45;;;;;;;22.73;11.90;;;-5.60;1.00;;;;;;8287218;28;20192;-77
2023/04/06 05:13:49;;;;;;;15.63;9.33;;;-5.50;1.00;;;;;;8286004;28;20186;-80
2023/04/06 05:17:51;;;;;;;18.63;10.63;;;-5.30;1.00;;;;;;8291571;28;20283;-80
2023/04/06 05:21:57;;;;;;;19.67;11.47;;;-5.10;99.90;;;;;;8290308;28;20197;-80
2023/04/06 05:26:01;;;;;;;21.17;11.67;;;-4.90;1.00;;;;;;8289441;28;20186;-80
2023/04/06 05:30:02;;;;;;;33.77;16.57;;;-4.60;43.40;;;;;;8300076;28;20234;-79
2023/04/06 05:34:03;;;;;;;37.63;18.73;;;-4.30;99.90;;;;;;8289161;28;20187;-80
2023/04/06 05:38:11;;;;;;;47.50;22.37;;;-4.10;99.90;;;;;;8297116;28;20205;-83
2023/04/06 05:42:22;;;;;;;54.90;23.80;;;-3.80;99.90;;;;;;8303627;28;20194;-79
2023/04/06 05:46:23;;;;;;;76.70;36.13;;;-3.60;1.00;;;;;;8303690;28;20182;-79
2023/04/06 05:50:34;;;;;;;58.50;29.37;;;-3.40;1.00;;;;;;8309573;28;20278;-78
2023/04/06 05:54:38;;;;;;;47.57;24.37;;;-3.30;1.00;;;;;;8325271;28;20206;-81
2023/04/06 05:58:39;;;;;;;39.83;21.70;;;-3.10;1.00;;;;;;8307896;28;20319;-80
2023/04/06 06:02:42;;;;;;;34.33;20.63;;;-2.90;1.00;;;;;;8303398;28;20220;-78
2023/04/06 06:06:47;;;;;;;36.37;20.03;;;-2.70;99.90;;;;;;8288118;28;20190;-78
2023/04/06 06:10:54;;;;;;;34.37;17.83;;;-2.50;1.00;;;;;;8290236;28;20214;-78
2023/04/06 06:14:55;;;;;;;48.83;24.43;;;-2.20;1.00;;;;;;8287970;28;20183;-83
2023/04/06 06:19:02;;;;;;;53.67;30.30;;;-1.90;1.00;;;;;;8290121;28;20186;-77
2023/04/06 06:23:03;;;;;;;81.47;45.63;;;-1.60;80.90;;;;;;8288290;28;20191;-78
2023/04/06 06:27:05;;;;;;;90.97;45.73;;;-1.50;99.90;;;;;;8291213;28;20195;-81
2023/04/06 06:31:07;;;;;;;66.13;36.27;;;-1.30;99.90;;;;;;8307552;28;20301;-79
2023/04/06 06:35:09;;;;;;;66.00;36.63;;;-1.10;96.20;;;;;;8294870;28;20287;-84
2023/04/06 06:39:13;;;;;;;79.00;47.10;;;-0.90;99.90;;;;;;8293401;28;20196;-84
2023/04/06 06:43:24;;;;;;;88.70;52.83;;;-0.70;99.90;;;;;;8293838;28;20243;-82
2023/04/06 06:47:26;;;;;;;151.80;77.63;;;-0.40;99.90;;;;;;8283691;28;20256;-78
2023/04/06 06:51:30;;;;;;;144.87;78.57;;;-0.20;99.90;;;;;;8285543;28;20233;-81
2023/04/06 06:55:31;;;;;;;86.57;50.93;;;0.00;99.90;;;;;;8284584;28;20202;-81
2023/04/06 06:59:32;;;;;;;54.00;35.87;;;0.30;99.90;;;;;;8287178;28;20202;-79
2023/04/06 07:03:33;;;;;;;36.87;25.63;;;0.50;99.90;;;;;;8283278;28;20206;-76
2023/04/06 07:07:34;;;;;;;50.10;31.10;;;0.70;79.70;;;;;;8281638;28;20231;-77
2023/04/06 07:11:35;;;;;;;46.30;29.03;;;0.90;1.00;;;;;;8287823;28;20221;-76
2023/04/06 07:15:36;;;;;;;41.73;25.97;;;1.20;1.00;;;;;;8284170;28;20193;-76
2023/04/06 07:19:44;;;;;;;41.60;24.30;;;1.40;99.90;;;;;;8287867;28;20179;-76
2023/04/06 07:23:47;;;;;;;40.33;23.00;;;1.70;99.90;;;;;;8285577;28;20185;-77
2023/04/06 07:27:49;;;;;;;35.67;22.03;;;1.90;99.90;;;;;;8291494;28;20193;-77
2023/04/06 07:32:03;;;;;;;31.60;19.73;;;2.20;99.90;;;;;;8296427;28;20215;-79
2023/04/06 07:36:34;;;;;;;31.13;18.27;;;2.50;95.60;;;;;;8296590;28;20186;-79
2023/04/06 07:40:35;;;;;;;25.70;16.63;;;2.80;36.00;;;;;;8260186;28;20199;-80
2023/04/06 07:44:36;;;;;;;24.33;15.37;;;3.00;1.00;;;;;;8293758;28;20201;-79
2023/04/06 07:48:37;;;;;;;25.97;17.03;;;3.40;1.00;;;;;;8300933;28;20276;-79
2023/04/06 07:52:39;;;;;;;25.00;15.47;;;3.70;1.00;;;;;;8301664;28;20210;-79
2023/04/06 07:56:46;;;;;;;23.30;14.60;;;3.80;1.00;;;;;;8296580;28;20218;-78
2023/04/06 08:00:50;;;;;;;19.73;14.00;;;4.10;1.00;;;;;;8300352;28;20208;-79
2023/04/06 08:04:51;;;;;;;13.67;11.13;;;4.30;1.00;;;;;;8305480;28;20213;-79
2023/04/06 08:09:02;;;;;;;15.37;11.00;;;4.50;1.00;;;;;;8339024;28;20183;-79
2023/04/06 08:13:03;;;;;;;19.37;13.07;;;4.70;1.00;;;;;;8334493;28;20306;-78
2023/04/06 08:17:04;;;;;;;17.87;11.13;;;4.90;1.00;;;;;;8334983;28;20260;-78
2023/04/06 08:21:05;;;;;;;29.80;17.93;;;5.10;1.00;;;;;;8329741;28;20190;-78
2023/04/06 08:25:06;;;;;;;19.27;13.37;;;5.30;1.00;;;;;;8318827;28;20197;-79
2023/04/06 08:29:07;;;;;;;20.20;13.60;;;5.40;1.00;;;;;;8306653;28;20183;-78
2023/04/06 08:33:10;;;;;;;15.83;10.93;;;5.50;1.00;;;;;;8297026;28;20218;-79
2023/04/06 08:37:10;;;;;;;25.07;17.13;;;5.70;1.00;;;;;;8318237;28;20193;-79
2023/04/06 08:41:13;;;;;;;12.40;9.77;;;5.80;1.00;;;;;;8318769;28;20187;-80
2023/04/06 08:45:17;;;;;;;15.87;11.07;;;5.70;1.00;;;;;;8307333;28;20269;-79
2023/04/06 08:49:21;;;;;;;14.67;10.37;;;5.80;1.00;;;;;;8290635;28;20187;-79
2023/04/06 08:53:25;;;;;;;16.90;11.20;;;5.80;1.00;;;;;;8292330;28;20304;-79
2023/04/06 08:57:31;;;;;;;15.40;11.43;;;5.80;1.00;;;;;;8292335;28;20226;-80
2023/04/06 09:01:36;;;;;;;16.67;10.77;;;5.80;1.00;;;;;;8288823;28;20275;-79
2023/04/06 09:05:41;;;;;;;11.60;9.63;;;6.20;1.00;;;;;;8306402;28;20353;-78
2023/04/06 09:09:47;;;;;;;13.20;9.80;;;6.20;1.00;;;;;;8287325;28;20232;-80
2023/04/06 09:13:57;;;;;;;12.23;9.37;;;6.00;1.00;;;;;;8288022;28;20241;-78
2023/04/06 09:18:05;;;;;;;11.63;9.40;;;6.10;1.00;;;;;;8293046;28;20193;-78
2023/04/06 09:22:09;;;;;;;11.97;8.97;;;6.50;1.00;;;;;;8292236;28;20210;-79
2023/04/06 09:26:16;;;;;;;10.20;8.07;;;6.90;1.00;;;;;;8288758;28;20199;-78
2023/04/06 09:30:24;;;;;;;10.17;7.43;;;7.30;1.00;;;;;;8298686;28;20202;-77
2023/04/06 09:34:26;;;;;;;10.77;7.87;;;7.20;1.00;;;;;;8307136;28;20191;-79
2023/04/06 09:38:32;;;;;;;8.53;6.53;;;7.40;1.00;;;;;;8341967;28;20184;-79
2023/04/06 09:42:35;;;;;;;7.37;6.13;;;7.70;1.00;;;;;;8345200;28;20246;-79
2023/04/06 09:46:41;;;;;;;8.10;6.40;;;7.60;1.00;;;;;;8339587;28;20278;-79
2023/04/06 09:50:42;;;;;;;9.57;7.30;;;7.30;1.00;;;;;;8325566;28;20218;-77
2023/04/06 09:54:47;;;;;;;9.93;6.03;;;7.20;1.00;;;;;;8311018;28;20198;-79
2023/04/06 09:58:59;;;;;;;9.20;6.67;;;6.90;1.00;;;;;;8298810;28;20230;-79
2023/04/06 10:03:30;;;;;;;8.20;5.40;;;7.10;1.00;;;;;;8321650;28;20176;-78
2023/04/06 10:07:31;;;;;;;11.73;5.90;;;7.50;1.00;;;;;;8306242;28;20190;-80
2023/04/06 10:11:33;;;;;;;8.97;6.07;;;8.00;1.00;;;;;;8318841;28;20199;-78
2023/04/06 10:15:42;;;;;;;10.33;7.07;;;8.30;1.00;;;;;;8301576;28;20186;-78
2023/04/06 10:20:21;;;;;;;10.60;8.07;;;8.10;1.00;;;;;;8315808;28;20182;-78
2023/04/06 10:24:22;;;;;;;9.20;7.07;;;8.30;1.00;;;;;;8273932;28;20203;-79
2023/04/06 10:28:43;;;;;;;9.67;7.00;;;8.50;1.00;;;;;;8293629;28;20198;-78
2023/04/06 10:32:44;;;;;;;14.10;9.13;;;8.60;1.00;;;;;;8307732;28;20202;-76
2023/04/06 10:36:46;;;;;;;13.10;8.10;;;8.60;1.00;;;;;;8290616;28;20217;-78
2023/04/06 10:40:47;;;;;;;8.13;6.10;;;8.80;1.00;;;;;;8291425;28;20216;-78
2023/04/06 10:44:50;;;;;;;10.40;7.73;;;8.90;1.00;;;;;;8311684;28;20192;-77
2023/04/06 10:48:55;;;;;;;11.67;8.53;;;9.00;1.00;;;;;;8292124;28;20195;-79
2023/04/06 10:53:01;;;;;;;10.43;7.83;;;9.00;1.00;;;;;;8291661;28;20221;-78
2023/04/06 10:57:02;;;;;;;10.63;6.27;;;9.10;1.00;;;;;;8304635;28;20191;-77
2023/04/06 11:01:04;;;;;;;20.93;12.53;;;9.30;1.00;;;;;;8301792;28;20199;-79
2023/04/06 11:05:11;;;;;;;14.93;9.07;;;9.20;99.90;;;;;;8312308;28;20286;-79
2023/04/06 11:09:27;;;;;;;16.63;10.90;;;9.30;99.90;;;;;;8296867;28;20183;-78
2023/04/06 11:14:02;;;;;;;9.83;6.27;;;9.40;99.90;;;;;;8296019;28;20263;-78
2023/04/06 11:18:04;;;;;;;6.67;4.93;;;9.40;99.90;;;;;;8292066;28;20192;-80
2023/04/06 11:22:16;;;;;;;13.67;7.50;;;9.50;99.90;;;;;;8302964;28;20186;-79
2023/04/06 11:26:17;;;;;;;8.53;6.00;;;9.70;99.90;;;;;;8313469;28;20190;-78
2023/04/06 11:30:18;;;;;;;8.97;6.10;;;9.50;99.90;;;;;;8333617;28;20247;-79
2023/04/06 11:34:24;;;;;;;7.57;5.97;;;9.70;99.90;;;;;;8331671;28;20189;-79
2023/04/06 11:38:25;;;;;;;7.43;5.57;;;9.90;99.90;;;;;;8322861;28;20191;-77
2023/04/06 11:42:29;;;;;;;10.37;7.70;;;9.90;99.90;;;;;;8316767;28;20254;-78
2023/04/06 11:46:55;;;;;;;8.53;6.87;;;10.00;99.90;;;;;;8317587;28;20231;-79
2023/04/06 11:51:01;;;;;;;7.57;6.53;;;10.30;99.90;;;;;;8307062;28;20213;-78
2023/04/06 11:55:22;;;;;;;9.30;6.97;;;10.20;99.90;;;;;;8299479;28;20197;-77
2023/04/06 11:59:23;;;;;;;7.40;4.73;;;10.00;99.90;;;;;;8291092;28;20248;-78
2023/04/06 12:03:24;;;;;;;8.37;5.20;;;9.90;99.90;;;;;;8292103;28;20200;-78
2023/04/06 12:07:28;;;;;;;6.53;4.77;;;10.10;99.90;;;;;;8314333;28;20191;-77
2023/04/06 12:11:29;;;;;;;8.83;6.43;;;10.40;99.90;;;;;;8290212;28;20206;-80
2023/04/06 12:15:30;;;;;;;7.13;4.90;;;10.30;99.90;;;;;;8284954;28;20201;-81
2023/04/06 12:19:31;;;;;;;7.03;5.57;;;10.30;99.90;;;;;;8287479;28;20189;-80
2023/04/06 12:23:39;;;;;;;7.83;4.80;;;10.20;99.90;;;;;;8291709;28;20245;-80
2023/04/06 12:27:40;;;;;;;8.37;5.20;;;10.00;99.90;;;;;;8285093;28;20186;-81
2023/04/06 12:31:42;;;;;;;8.90;6.10;;;9.60;99.90;;;;;;8296434;28;20232;-79
2023/04/06 12:35:44;;;;;;;14.10;9.03;;;9.80;99.90;;;;;;8315718;28;20182;-80
2023/04/06 12:39:45;;;;;;;9.63;6.07;;;9.90;99.90;;;;;;8302818;28;20212;-80
2023/04/06 12:43:48;;;;;;;9.10;5.77;;;10.30;99.90;;;;;;8308901;28;20185;-78
2023/04/06 12:47:52;;;;;;;7.87;6.20;;;10.60;99.90;;;;;;8302014;28;20194;-78
2023/04/06 12:51:53;;;;;;;9.53;6.50;;;10.50;99.90;;;;;;8313367;28;20300;-79
2023/04/06 12:55:55;;;;;;;15.20;10.67;;;10.50;99.90;;;;;;8322878;28;20255;-76
2023/04/06 12:59:56;;;;;;;8.73;6.57;;;10.50;99.90;;;;;;8301760;28;20201;-76
2023/04/06 13:04:00;;;;;;;12.43;7.37;;;10.30;99.90;;;;;;8292837;28;20223;-75
2023/04/06 13:08:02;;;;;;;10.70;7.60;;;10.20;99.90;;;;;;8318043;28;20189;-75
2023/04/06 13:12:06;;;;;;;12.03;6.87;;;10.20;99.90;;;;;;8294675;28;20215;-76
2023/04/06 13:16:11;;;;;;;9.33;7.43;;;10.50;99.90;;;;;;8292852;28;20182;-76
2023/04/06 13:20:12;;;;;;;8.43;6.53;;;10.90;99.90;;;;;;8311494;28;20186;-74
2023/04/06 13:24:34;;;;;;;11.03;7.03;;;11.00;99.90;;;;;;8298085;28;20210;-74
2023/04/06 13:28:39;;;;;;;12.97;8.27;;;11.20;99.90;;;;;;8295794;28;20194;-76
2023/04/06 13:32:40;;;;;;;18.20;11.37;;;11.00;99.90;;;;;;8312487;28;20210;-75
2023/04/06 13:36:42;;;;;;;11.13;8.27;;;10.70;99.90;;;;;;8296669;28;20181;-74
2023/04/06 13:41:06;;;;;;;17.87;9.90;;;10.30;99.90;;;;;;8289448;28;20225;-76
2023/04/06 13:45:11;;;;;;;20.60;10.80;;;9.60;99.90;;;;;;8292381;28;20285;-76
2023/04/06 13:49:12;;;;;;;22.70;12.37;;;9.50;99.90;;;;;;8284130;28;20322;-75
2023/04/06 13:53:16;;;;;;;8.73;6.30;;;9.30;99.90;;;;;;8293269;28;20211;-76
2023/04/06 13:57:26;;;;;;;7.70;5.87;;;9.10;99.90;;;;;;8287084;28;20200;-75
2023/04/06 14:01:27;;;;;;;9.23;5.33;;;9.20;99.90;;;;;;8288444;28;20212;-79
2023/04/06 14:05:32;;;;;;;8.97;6.17;;;9.50;99.90;;;;;;8303902;28;20205;-80
2023/04/06 14:09:33;;;;;;;8.97;5.67;;;9.90;99.90;;;;;;8306464;28;20217;-77
2023/04/06 14:13:35;;;;;;;8.00;5.57;;;10.30;99.90;;;;;;8292540;28;20217;-79
2023/04/06 14:17:36;;;;;;;12.70;7.73;;;10.70;99.90;;;;;;8284945;28;20205;-80
2023/04/06 14:21:39;;;;;;;10.83;7.20;;;10.90;99.90;;;;;;8293916;28;20402;-79
2023/04/06 14:25:51;;;;;;;8.60;6.13;;;10.70;99.90;;;;;;8298325;28;20191;-79
2023/04/06 14:29:53;;;;;;;11.73;7.47;;;10.30;99.90;;;;;;8294563;28;20193;-80
2023/04/06 14:33:58;;;;;;;9.03;7.53;;;10.10;99.90;;;;;;8295180;28;20217;-80
2023/04/06 14:38:01;;;;;;;12.87;8.60;;;9.90;99.90;;;;;;8296240;28;20179;-79
2023/04/06 14:42:02;;;;;;;30.20;16.57;;;9.80;99.90;;;;;;8319756;28;20283;-78
2023/04/06 14:46:08;;;;;;;16.63;9.13;;;9.80;99.90;;;;;;8301415;28;20193;-79
2023/04/06 14:50:11;;;;;;;11.70;7.87;;;9.80;99.90;;;;;;8335035;28;20190;-79
2023/04/06 14:54:12;;;;;;;8.20;6.10;;;9.80;99.90;;;;;;8325759;28;20207;-81
2023/04/06 14:58:13;;;;;;;12.67;8.80;;;9.80;99.90;;;;;;8325071;28;20214;-77
2023/04/06 15:02:15;;;;;;;28.47;15.67;;;9.70;99.90;;;;;;8319735;28;20307;-79
2023/04/06 15:06:17;;;;;;;9.73;6.10;;;9.60;99.90;;;;;;8313128;28;20191;-78
2023/04/06 15:10:18;;;;;;;6.90;5.37;;;9.60;99.90;;;;;;8293843;28;20213;-77
2023/04/06 15:14:28;;;;;;;7.27;5.10;;;9.40;99.90;;;;;;8287208;28;20190;-77
2023/04/06 15:18:33;;;;;;;17.27;8.90;;;9.10;99.90;;;;;;8284953;28;20194;-79
2023/04/06 15:22:35;;;;;;;14.07;9.93;;;9.20;99.90;;;;;;8284740;28;20187;-77
2023/04/06 15:26:39;;;;;;;11.67;6.53;;;9.30;99.90;;;;;;8304911;28;20191;-78
2023/04/06 15:30:41;;;;;;;7.60;5.17;;;9.50;99.90;;;;;;8307177;28;20222;-78
2023/04/06 15:34:42;;;;;;;7.70;4.80;;;9.40;99.90;;;;;;8303123;28;20187;-80
2023/04/06 15:38:43;;;;;;;7.53;5.10;;;9.20;99.90;;;;;;8294947;28;20194;-81
2023/04/06 15:42:44;;;;;;;10.97;7.20;;;9.10;99.90;;;;;;8305351;28;20191;-81
2023/04/06 15:46:45;;;;;;;11.67;7.07;;;9.40;99.90;;;;;;8297719;28;20197;-81
2023/04/06 15:50:46;;;;;;;11.77;6.50;;;9.50;99.90;;;;;;8315947;28;20234;-83
2023/04/06 15:54:50;;;;;;;10.53;6.60;;;9.60;99.90;;;;;;8307505;28;20193;-80
2023/04/06 15:58:51;;;;;;;11.07;7.17;;;9.70;99.90;;;;;;8305411;28;20206;-80
2023/04/06 16:02:52;;;;;;;18.33;13.40;;;9.80;99.90;;;;;;8317603;28;20326;-79
2023/04/06 16:06:53;;;;;;;34.43;18.33;;;9.70;99.90;;;;;;8321267;28;20185;-79
2023/04/06 16:10:58;;;;;;;7.20;5.30;;;9.60;99.90;;;;;;8312398;28;20195;-79
2023/04/06 16:14:59;;;;;;;28.27;14.80;;;9.50;99.90;;;;;;8313529;28;20187;-82
2023/04/06 16:19:01;;;;;;;8.67;6.47;;;9.40;99.90;;;;;;8337381;28;20195;-80
2023/04/06 16:23:02;;;;;;;19.30;11.40;;;9.20;99.90;;;;;;8317350;28;20222;-81
2023/04/06 16:27:03;;;;;;;14.43;9.87;;;9.10;99.90;;;;;;8330720;28;20240;-80
2023/04/06 16:31:04;;;;;;;12.03;7.63;;;9.00;99.90;;;;;;8302490;28;20223;-80
2023/04/06 16:35:19;;;;;;;11.93;8.63;;;8.90;99.90;;;;;;8302150;28;20278;-79
2023/04/06 16:39:20;;;;;;;14.47;10.90;;;8.80;99.90;;;;;;8298999;28;20208;-80
2023/04/06 16:43:21;;;;;;;11.13;7.60;;;8.70;99.90;;;;;;8298660;28;20241;-81
2023/04/06 16:47:22;;;;;;;12.00;8.00;;;8.60;99.90;;;;;;8293047;28;20285;-80
2023/04/06 16:51:26;;;;;;;10.63;7.60;;;8.50;99.90;;;;;;8286888;28;20245;-80
2023/04/06 16:55:38;;;;;;;37.47;21.07;;;8.30;99.90;;;;;;8280102;28;20294;-79
2023/04/06 16:59:51;;;;;;;28.57;16.30;;;8.10;99.90;;;;;;8294619;28;20435;-79
2023/04/06 17:03:53;;;;;;;25.13;14.77;;;8.00;99.90;;;;;;8291976;28;20217;-80
2023/04/06 17:07:54;;;;;;;48.53;27.23;;;7.80;99.90;;;;;;8291900;28;20250;-78
2023/04/06 17:11:55;;;;;;;27.93;16.43;;;7.70;1.00;;;;;;8296906;28;20206;-80
2023/04/06 17:16:19;;;;;;;17.73;13.03;;;7.60;99.90;;;;;;8291810;28;20273;-80
2023/04/06 17:20:53;;;;;;;19.00;10.83;;;7.40;99.90;;;;;;8270122;28;20190;-77
2023/04/06 17:24:54;;;;;;;67.93;34.13;;;7.20;99.90;;;;;;8276501;28;20199;-77
2023/04/06 17:28:55;;;;;;;46.67;26.00;;;7.00;99.90;;;;;;8322044;28;20190;-81
2023/04/06 17:33:00;;;;;;;37.23;21.93;;;6.80;99.90;;;;;;8308201;28;20201;-80
2023/04/06 17:37:01;;;;;;;38.70;21.83;;;6.60;99.90;;;;;;8302306;28;20191;-80
2023/04/06 17:41:06;;;;;;;57.77;27.03;;;6.40;99.90;;;;;;8298720;28;20202;-79
2023/04/06 17:45:14;;;;;;;34.40;17.33;;;6.20;1.00;;;;;;8295281;28;20198;-80
2023/04/06 17:49:15;;;;;;;16.63;9.43;;;5.90;1.00;;;;;;8297917;28;20263;-80
2023/04/06 17:53:19;;;;;;;11.47;6.60;;;5.40;1.00;;;;;;8303350;28;20229;-80
2023/04/06 17:57:20;;;;;;;9.90;6.03;;;5.00;1.00;;;;;;8308256;28;20203;-80
2023/04/06 18:01:23;;;;;;;9.50;4.90;;;4.60;1.00;;;;;;8305140;28;20206;-81
2023/04/06 18:05:31;;;;;;;6.77;3.83;;;4.20;1.00;;;;;;8290566;28;20256;-80
2023/04/06 18:09:32;;;;;;;6.23;3.83;;;3.90;1.00;;;;;;8301544;28;20352;-80
2023/04/06 18:13:36;;;;;;;5.83;3.63;;;3.70;1.00;;;;;;8297605;28;20269;-77
2023/04/06 18:17:37;;;;;;;4.50;3.60;;;3.40;1.00;;;;;;8295812;28;20187;-76
2023/04/06 18:21:39;;;;;;;6.73;4.20;;;3.20;1.00;;;;;;8299473;28;20207;-74
2023/04/06 18:25:45;;;;;;;5.53;3.77;;;3.00;1.00;;;;;;8312390;28;20293;-76
2023/04/06 18:29:49;;;;;;;4.63;3.57;;;2.80;1.00;;;;;;8314836;28;20192;-76
2023/04/06 18:33:52;;;;;;;5.43;3.30;;;2.60;1.00;;;;;;8313525;28;20214;-75
2023/04/06 18:37:53;;;;;;;7.03;3.43;;;2.40;1.00;;;;;;8313689;28;20213;-76
2023/04/06 18:41:54;;;;;;;4.90;3.37;;;2.30;1.00;;;;;;8310364;28;20211;-77
2023/04/06 18:45:59;;;;;;;4.80;3.50;;;2.20;1.00;;;;;;8304666;28;20206;-77
2023/04/06 18:50:00;;;;;;;5.07;3.50;;;2.10;1.00;;;;;;8300819;28;20187;-77
2023/04/06 18:54:01;;;;;;;6.40;3.80;;;2.00;1.00;;;;;;8298211;28;20214;-75
2023/04/06 18:58:02;;;;;;;5.43;3.63;;;1.90;1.00;;;;;;8299022;28;20201;-75
2023/04/06 19:02:04;;;;;;;5.63;3.67;;;1.80;1.00;;;;;;8271604;28;20265;-76
2023/04/06 19:06:06;;;;;;;7.13;4.40;;;1.60;1.00;;;;;;8301851;28;20187;-76
2023/04/06 19:10:08;;;;;;;5.27;3.33;;;1.50;1.00;;;;;;8303411;28;20187;-76
2023/04/06 19:14:09;;;;;;;5.37;3.50;;;1.40;1.00;;;;;;8299577;28;20202;-76
2023/04/06 19:18:14;;;;;;;8.50;4.60;;;1.30;1.00;;;;;;8324600;28;20189;-77
2023/04/06 19:22:15;;;;;;;5.63;3.90;;;1.20;1.00;;;;;;8327445;28;20180;-77
2023/04/06 19:26:18;;;;;;;4.27;3.27;;;1.10;1.00;;;;;;8335714;28;20179;-77
2023/04/06 19:30:19;;;;;;;12.80;6.47;;;1.00;1.00;;;;;;8319983;28;20218;-75
2023/04/06 19:34:20;;;;;;;13.07;7.00;;;0.90;1.00;;;;;;8333656;28;20162;-76
2023/04/06 19:38:21;;;;;;;8.27;4.43;;;0.70;1.00;;;;;;8315237;28;20195;-77
2023/04/06 19:42:24;;;;;;;21.80;8.20;;;0.60;1.00;;;;;;8304234;28;20196;-80
2023/04/06 19:46:25;;;;;;;32.50;12.33;;;0.50;1.00;;;;;;8298604;28;20279;-78
2023/04/06 19:50:29;;;;;;;13.73;7.20;;;0.40;1.00;;;;;;8296038;28;20191;-80
2023/04/06 19:54:30;;;;;;;7.77;5.37;;;0.30;1.00;;;;;;8292750;28;20195;-80
2023/04/06 19:58:34;;;;;;;7.93;4.60;;;0.20;1.00;;;;;;8322464;23;20241;-73
2023/04/06 20:02:41;;;;;;;6.37;4.77;;;0.10;1.00;;;;;;8286068;28;20184;-74
2023/04/06 20:06:42;;;;;;;6.40;4.77;;;0.10;1.00;;;;;;8278353;28;20269;-74
2023/04/06 20:11:02;;;;;;;7.07;4.50;;;0.00;1.00;;;;;;8266887;28;20199;-74
2023/04/06 20:20:04;;;;;;;8.13;4.30;;;-0.10;1.00;;;;;;8238869;28;20191;-74
2023/04/06 20:24:05;;;;;;;7.97;4.23;;;-0.20;1.00;;;;;;8270221;28;20191;-74
2023/04/06 20:28:07;;;;;;;6.27;4.13;;;-0.30;1.00;;;;;;8254212;28;20187;-74
2023/04/06 20:32:10;;;;;;;6.70;4.30;;;-0.40;1.00;;;;;;8250297;28;20229;-74
2023/04/06 20:36:42;;;;;;;6.63;4.03;;;-0.50;3.90;;;;;;8256050;28;20187;-75
2023/04/06 20:41:06;;;;;;;5.40;4.50;;;-0.50;8.20;;;;;;8262700;28;20203;-74
2023/04/06 20:45:16;;;;;;;5.97;4.07;;;-0.60;12.50;;;;;;8279988;28;20281;-74
2023/04/06 20:49:20;;;;;;;8.30;5.43;;;-0.70;20.10;;;;;;8267457;28;20201;-75
2023/04/06 20:53:27;;;;;;;8.17;4.80;;;-0.80;26.10;;;;;;8255355;28;20228;-76
2023/04/06 20:57:31;;;;;;;10.47;5.07;;;-0.80;36.60;;;;;;8281498;28;20208;-75
2023/04/06 21:01:38;;;;;;;7.13;4.97;;;-0.90;45.60;;;;;;8267440;28;20200;-74
2023/04/06 21:05:58;;;;;;;;;;;;;;;;;;;;;
2023/04/06 21:10:02;;;;;;;8.80;4.70;;;-0.90;63.20;;;;;;8280793;28;20201;-77
2023/04/06 21:14:15;;;;;;;7.67;5.47;;;-1.00;66.10;;;;;;8275654;28;20226;-75
2023/04/06 21:18:16;;;;;;;8.20;4.97;;;-1.00;71.30;;;;;;8267013;28;20194;-74
2023/04/06 21:22:17;;;;;;;9.23;5.40;;;-1.00;77.90;;;;;;8255653;28;20230;-76